sensor_id;sensor_type;location;lat;lon;timestamp;P1;durP1;ratioP1;P2;durP2;ratioP2
41446;SDS011;27185;52.040;4.490;2022-11-15T00:01:32;50.88;;;25.05;;
41446;SDS011;27185;52.040;4.490;2022-11-15T00:04:18;56.08;;;27.33;;
41446;SDS011;27185;52.040;4.490;2022-11-15T00:07:03;55.60;;;26.40;;
41446;SDS011;27185;52.040;4.490;2022-11-15T00:09:49;52.55;;;25.52;;
41446;SDS011;27185;52.040;4.490;2022-11-15T00:12:34;46.97;;;24.80;;
41446;SDS011;27185;52.040;4.490;2022-11-15T00:15:20;49.30;;;23.83;;
41446;SDS011;27185;52.040;4.490;2022-11-15T00:18:06;54.15;;;25.23;;
41446;SDS011;27185;52.040;4.490;2022-11-15T00:21:02;51.38;;;25.20;;
41446;SDS011;27185;52.040;4.490;2022-11-15T00:23:52;46.58;;;23.08;;
41446;SDS011;27185;52.040;4.490;2022-11-15T00:26:38;50.45;;;23.75;;
41446;SDS011;27185;52.040;4.490;2022-11-15T00:29:24;47.92;;;23.25;;
41446;SDS011;27185;52.040;4.490;2022-11-15T00:32:10;57.53;;;24.95;;
41446;SDS011;27185;52.040;4.490;2022-11-15T00:34:55;49.58;;;25.42;;
41446;SDS011;27185;52.040;4.490;2022-11-15T00:37:41;47.88;;;23.63;;
41446;SDS011;27185;52.040;4.490;2022-11-15T00:40:26;52.75;;;25.17;;
41446;SDS011;27185;52.040;4.490;2022-11-15T00:43:12;52.20;;;24.88;;
41446;SDS011;27185;52.040;4.490;2022-11-15T00:45:57;53.28;;;26.67;;
41446;SDS011;27185;52.040;4.490;2022-11-15T00:48:43;52.55;;;24.60;;
41446;SDS011;27185;52.040;4.490;2022-11-15T00:51:29;55.38;;;26.17;;
41446;SDS011;27185;52.040;4.490;2022-11-15T00:54:14;57.83;;;25.73;;
41446;SDS011;27185;52.040;4.490;2022-11-15T00:57:00;56.78;;;24.35;;
41446;SDS011;27185;52.040;4.490;2022-11-15T00:59:45;69.13;;;26.38;;
41446;SDS011;27185;52.040;4.490;2022-11-15T01:02:31;58.45;;;24.38;;
41446;SDS011;27185;52.040;4.490;2022-11-15T01:05:16;54.08;;;25.35;;
41446;SDS011;27185;52.040;4.490;2022-11-15T01:08:02;52.45;;;24.15;;
41446;SDS011;27185;52.040;4.490;2022-11-15T01:10:48;53.90;;;25.70;;
41446;SDS011;27185;52.040;4.490;2022-11-15T01:13:33;50.30;;;24.02;;
41446;SDS011;27185;52.040;4.490;2022-11-15T01:16:20;60.63;;;26.87;;
41446;SDS011;27185;52.040;4.490;2022-11-15T01:19:06;65.25;;;26.55;;
41446;SDS011;27185;52.040;4.490;2022-11-15T01:21:51;55.90;;;26.20;;
41446;SDS011;27185;52.040;4.490;2022-11-15T01:24:37;63.08;;;26.73;;
41446;SDS011;27185;52.040;4.490;2022-11-15T01:27:23;60.55;;;26.00;;
41446;SDS011;27185;52.040;4.490;2022-11-15T01:30:08;62.85;;;27.60;;
41446;SDS011;27185;52.040;4.490;2022-11-15T01:32:54;58.42;;;25.33;;
41446;SDS011;27185;52.040;4.490;2022-11-15T01:35:40;58.22;;;26.48;;
41446;SDS011;27185;52.040;4.490;2022-11-15T01:38:25;59.40;;;27.52;;
41446;SDS011;27185;52.040;4.490;2022-11-15T01:41:18;58.72;;;28.17;;
41446;SDS011;27185;52.040;4.490;2022-11-15T01:47:18;55.97;;;26.95;;
41446;SDS011;27185;52.040;4.490;2022-11-15T01:50:09;64.85;;;27.30;;
41446;SDS011;27185;52.040;4.490;2022-11-15T01:52:57;61.28;;;26.65;;
41446;SDS011;27185;52.040;4.490;2022-11-15T01:55:43;64.72;;;28.85;;
41446;SDS011;27185;52.040;4.490;2022-11-15T01:58:29;66.57;;;28.27;;
41446;SDS011;27185;52.040;4.490;2022-11-15T02:01:15;56.22;;;26.38;;
41446;SDS011;27185;52.040;4.490;2022-11-15T02:04:06;62.60;;;27.15;;
41446;SDS011;27185;52.040;4.490;2022-11-15T02:06:59;56.38;;;25.15;;
41446;SDS011;27185;52.040;4.490;2022-11-15T02:09:48;57.30;;;26.92;;
41446;SDS011;27185;52.040;4.490;2022-11-15T02:12:34;67.55;;;29.15;;
41446;SDS011;27185;52.040;4.490;2022-11-15T02:15:21;60.88;;;28.73;;
41446;SDS011;27185;52.040;4.490;2022-11-15T02:21:10;50.33;;;23.30;;
41446;SDS011;27185;52.040;4.490;2022-11-15T02:24:23;62.80;;;25.38;;
41446;SDS011;27185;52.040;4.490;2022-11-15T02:39:26;56.58;;;27.63;;
41446;SDS011;27185;52.040;4.490;2022-11-15T02:42:28;63.20;;;27.75;;
41446;SDS011;27185;52.040;4.490;2022-11-15T02:45:37;55.10;;;25.08;;
41446;SDS011;27185;52.040;4.490;2022-11-15T02:48:26;69.47;;;26.83;;
41446;SDS011;27185;52.040;4.490;2022-11-15T02:51:13;52.17;;;25.60;;
41446;SDS011;27185;52.040;4.490;2022-11-15T02:54:00;60.45;;;27.27;;
41446;SDS011;27185;52.040;4.490;2022-11-15T02:56:45;47.97;;;26.15;;
41446;SDS011;27185;52.040;4.490;2022-11-15T03:02:42;53.88;;;27.27;;
41446;SDS011;27185;52.040;4.490;2022-11-15T03:05:53;51.35;;;25.17;;
41446;SDS011;27185;52.040;4.490;2022-11-15T03:08:53;48.10;;;26.17;;
41446;SDS011;27185;52.040;4.490;2022-11-15T03:11:50;57.33;;;27.17;;
41446;SDS011;27185;52.040;4.490;2022-11-15T03:14:56;45.47;;;24.10;;
41446;SDS011;27185;52.040;4.490;2022-11-15T03:18:04;44.95;;;24.30;;
41446;SDS011;27185;52.040;4.490;2022-11-15T03:20:58;47.58;;;27.33;;
41446;SDS011;27185;52.040;4.490;2022-11-15T03:23:47;52.70;;;29.33;;
41446;SDS011;27185;52.040;4.490;2022-11-15T03:26:35;44.67;;;25.45;;
41446;SDS011;27185;52.040;4.490;2022-11-15T03:29:27;36.20;;;23.75;;
41446;SDS011;27185;52.040;4.490;2022-11-15T03:32:17;43.42;;;25.17;;
41446;SDS011;27185;52.040;4.490;2022-11-15T03:35:08;40.97;;;25.70;;
41446;SDS011;27185;52.040;4.490;2022-11-15T03:38:15;41.40;;;23.95;;
41446;SDS011;27185;52.040;4.490;2022-11-15T03:41:10;49.55;;;25.92;;
41446;SDS011;27185;52.040;4.490;2022-11-15T03:44:08;48.45;;;27.17;;
41446;SDS011;27185;52.040;4.490;2022-11-15T03:47:03;37.92;;;23.58;;
41446;SDS011;27185;52.040;4.490;2022-11-15T03:49:59;32.30;;;20.58;;
41446;SDS011;27185;52.040;4.490;2022-11-15T03:52:55;38.45;;;23.67;;
41446;SDS011;27185;52.040;4.490;2022-11-15T03:55:42;33.25;;;21.38;;
41446;SDS011;27185;52.040;4.490;2022-11-15T03:58:27;34.15;;;21.90;;
41446;SDS011;27185;52.040;4.490;2022-11-15T04:01:13;34.33;;;21.20;;
41446;SDS011;27185;52.040;4.490;2022-11-15T04:03:58;30.60;;;19.35;;
41446;SDS011;27185;52.040;4.490;2022-11-15T04:06:44;37.33;;;21.80;;
41446;SDS011;27185;52.040;4.490;2022-11-15T04:09:29;32.40;;;20.10;;
41446;SDS011;27185;52.040;4.490;2022-11-15T04:12:15;35.42;;;21.58;;
41446;SDS011;27185;52.040;4.490;2022-11-15T04:15:19;24.73;;;17.60;;
41446;SDS011;27185;52.040;4.490;2022-11-15T04:18:06;26.83;;;16.50;;
41446;SDS011;27185;52.040;4.490;2022-11-15T04:20:52;26.10;;;15.35;;
41446;SDS011;27185;52.040;4.490;2022-11-15T04:23:56;24.08;;;16.25;;
41446;SDS011;27185;52.040;4.490;2022-11-15T04:26:57;23.45;;;15.52;;
41446;SDS011;27185;52.040;4.490;2022-11-15T04:29:43;23.45;;;15.57;;
41446;SDS011;27185;52.040;4.490;2022-11-15T04:32:28;20.58;;;13.35;;
41446;SDS011;27185;52.040;4.490;2022-11-15T04:35:14;24.40;;;12.50;;
41446;SDS011;27185;52.040;4.490;2022-11-15T04:37:59;20.88;;;13.18;;
41446;SDS011;27185;52.040;4.490;2022-11-15T04:40:46;23.33;;;13.57;;
41446;SDS011;27185;52.040;4.490;2022-11-15T04:43:32;20.60;;;12.80;;
41446;SDS011;27185;52.040;4.490;2022-11-15T04:46:17;21.85;;;13.80;;
41446;SDS011;27185;52.040;4.490;2022-11-15T04:49:03;25.35;;;13.25;;
41446;SDS011;27185;52.040;4.490;2022-11-15T04:51:49;19.38;;;11.65;;
41446;SDS011;27185;52.040;4.490;2022-11-15T04:54:35;20.48;;;12.85;;
41446;SDS011;27185;52.040;4.490;2022-11-15T04:57:20;18.63;;;12.60;;
41446;SDS011;27185;52.040;4.490;2022-11-15T05:00:08;22.98;;;12.52;;
41446;SDS011;27185;52.040;4.490;2022-11-15T05:02:56;25.92;;;14.15;;
41446;SDS011;27185;52.040;4.490;2022-11-15T05:06:03;22.65;;;13.20;;
41446;SDS011;27185;52.040;4.490;2022-11-15T05:08:50;23.15;;;12.80;;
41446;SDS011;27185;52.040;4.490;2022-11-15T05:11:35;23.30;;;13.57;;
41446;SDS011;27185;52.040;4.490;2022-11-15T05:14:21;21.67;;;12.75;;
41446;SDS011;27185;52.040;4.490;2022-11-15T05:17:06;20.77;;;11.73;;
41446;SDS011;27185;52.040;4.490;2022-11-15T05:19:52;19.90;;;11.30;;
41446;SDS011;27185;52.040;4.490;2022-11-15T05:22:38;18.90;;;11.25;;
41446;SDS011;27185;52.040;4.490;2022-11-15T05:25:24;18.65;;;10.05;;
41446;SDS011;27185;52.040;4.490;2022-11-15T05:28:09;18.80;;;11.35;;
41446;SDS011;27185;52.040;4.490;2022-11-15T05:31:02;22.17;;;12.45;;
41446;SDS011;27185;52.040;4.490;2022-11-15T05:33:52;15.52;;;10.18;;
41446;SDS011;27185;52.040;4.490;2022-11-15T05:36:42;18.60;;;10.55;;
41446;SDS011;27185;52.040;4.490;2022-11-15T05:39:30;24.90;;;11.82;;
41446;SDS011;27185;52.040;4.490;2022-11-15T05:42:16;17.90;;;11.52;;
41446;SDS011;27185;52.040;4.490;2022-11-15T05:45:02;19.52;;;11.95;;
41446;SDS011;27185;52.040;4.490;2022-11-15T05:47:51;25.77;;;11.57;;
41446;SDS011;27185;52.040;4.490;2022-11-15T05:50:40;20.88;;;12.02;;
41446;SDS011;27185;52.040;4.490;2022-11-15T05:53:28;24.70;;;11.07;;
41446;SDS011;27185;52.040;4.490;2022-11-15T05:56:15;16.80;;;9.60;;
41446;SDS011;27185;52.040;4.490;2022-11-15T05:59:01;14.52;;;10.00;;
41446;SDS011;27185;52.040;4.490;2022-11-15T06:01:47;17.73;;;10.38;;
41446;SDS011;27185;52.040;4.490;2022-11-15T06:04:33;15.25;;;9.35;;
41446;SDS011;27185;52.040;4.490;2022-11-15T06:07:18;23.63;;;10.23;;
41446;SDS011;27185;52.040;4.490;2022-11-15T06:10:04;13.85;;;8.70;;
41446;SDS011;27185;52.040;4.490;2022-11-15T06:12:57;16.27;;;10.48;;
41446;SDS011;27185;52.040;4.490;2022-11-15T06:15:44;13.13;;;7.97;;
41446;SDS011;27185;52.040;4.490;2022-11-15T06:18:31;15.02;;;8.05;;
41446;SDS011;27185;52.040;4.490;2022-11-15T06:21:18;13.85;;;7.60;;
41446;SDS011;27185;52.040;4.490;2022-11-15T06:24:04;15.40;;;7.18;;
41446;SDS011;27185;52.040;4.490;2022-11-15T06:26:51;15.98;;;6.97;;
41446;SDS011;27185;52.040;4.490;2022-11-15T06:29:37;12.55;;;6.25;;
41446;SDS011;27185;52.040;4.490;2022-11-15T06:32:22;8.55;;;4.97;;
41446;SDS011;27185;52.040;4.490;2022-11-15T06:35:08;13.82;;;6.47;;
41446;SDS011;27185;52.040;4.490;2022-11-15T06:37:53;8.30;;;4.88;;
41446;SDS011;27185;52.040;4.490;2022-11-15T06:40:39;10.70;;;6.07;;
41446;SDS011;27185;52.040;4.490;2022-11-15T06:43:25;12.02;;;5.28;;
41446;SDS011;27185;52.040;4.490;2022-11-15T06:46:10;16.55;;;6.75;;
41446;SDS011;27185;52.040;4.490;2022-11-15T06:48:56;10.55;;;5.53;;
41446;SDS011;27185;52.040;4.490;2022-11-15T06:51:43;13.60;;;5.10;;
41446;SDS011;27185;52.040;4.490;2022-11-15T06:54:30;12.77;;;5.38;;
41446;SDS011;27185;52.040;4.490;2022-11-15T06:57:15;8.40;;;5.15;;
41446;SDS011;27185;52.040;4.490;2022-11-15T07:00:02;12.65;;;5.35;;
41446;SDS011;27185;52.040;4.490;2022-11-15T07:02:49;14.27;;;5.13;;
41446;SDS011;27185;52.040;4.490;2022-11-15T07:05:35;10.80;;;5.65;;
41446;SDS011;27185;52.040;4.490;2022-11-15T07:08:21;18.45;;;7.10;;
41446;SDS011;27185;52.040;4.490;2022-11-15T07:11:08;14.65;;;6.25;;
41446;SDS011;27185;52.040;4.490;2022-11-15T07:13:54;11.60;;;6.35;;
41446;SDS011;27185;52.040;4.490;2022-11-15T07:16:39;11.05;;;5.68;;
41446;SDS011;27185;52.040;4.490;2022-11-15T07:19:25;14.27;;;6.18;;
41446;SDS011;27185;52.040;4.490;2022-11-15T07:22:10;15.60;;;6.78;;
41446;SDS011;27185;52.040;4.490;2022-11-15T07:24:56;11.05;;;5.97;;
41446;SDS011;27185;52.040;4.490;2022-11-15T07:27:41;12.30;;;6.05;;
41446;SDS011;27185;52.040;4.490;2022-11-15T07:30:27;13.00;;;5.00;;
41446;SDS011;27185;52.040;4.490;2022-11-15T07:33:13;8.25;;;4.70;;
41446;SDS011;27185;52.040;4.490;2022-11-15T07:35:59;11.75;;;4.85;;
41446;SDS011;27185;52.040;4.490;2022-11-15T07:38:46;11.32;;;4.43;;
41446;SDS011;27185;52.040;4.490;2022-11-15T07:41:32;8.27;;;4.38;;
41446;SDS011;27185;52.040;4.490;2022-11-15T07:44:17;9.63;;;4.28;;
41446;SDS011;27185;52.040;4.490;2022-11-15T07:47:03;9.20;;;3.80;;
41446;SDS011;27185;52.040;4.490;2022-11-15T07:49:48;9.82;;;4.13;;
41446;SDS011;27185;52.040;4.490;2022-11-15T07:52:34;12.65;;;4.28;;
41446;SDS011;27185;52.040;4.490;2022-11-15T07:55:20;9.10;;;4.47;;
41446;SDS011;27185;52.040;4.490;2022-11-15T07:58:10;9.18;;;3.25;;
41446;SDS011;27185;52.040;4.490;2022-11-15T08:00:57;8.05;;;3.15;;
41446;SDS011;27185;52.040;4.490;2022-11-15T08:03:42;11.68;;;3.90;;
41446;SDS011;27185;52.040;4.490;2022-11-15T08:06:28;8.38;;;3.40;;
41446;SDS011;27185;52.040;4.490;2022-11-15T08:09:14;6.53;;;2.95;;
41446;SDS011;27185;52.040;4.490;2022-11-15T08:11:59;7.90;;;3.25;;
41446;SDS011;27185;52.040;4.490;2022-11-15T08:14:46;8.48;;;3.33;;
41446;SDS011;27185;52.040;4.490;2022-11-15T08:17:32;9.02;;;3.53;;
41446;SDS011;27185;52.040;4.490;2022-11-15T08:20:19;5.43;;;3.38;;
41446;SDS011;27185;52.040;4.490;2022-11-15T08:23:04;11.75;;;5.15;;
41446;SDS011;27185;52.040;4.490;2022-11-15T08:25:51;6.93;;;3.35;;
41446;SDS011;27185;52.040;4.490;2022-11-15T08:28:36;8.43;;;3.88;;
41446;SDS011;27185;52.040;4.490;2022-11-15T08:31:22;8.50;;;4.55;;
41446;SDS011;27185;52.040;4.490;2022-11-15T08:34:08;10.68;;;4.45;;
41446;SDS011;27185;52.040;4.490;2022-11-15T08:36:53;9.93;;;4.80;;
41446;SDS011;27185;52.040;4.490;2022-11-15T08:39:39;10.77;;;5.90;;
41446;SDS011;27185;52.040;4.490;2022-11-15T08:42:25;8.20;;;5.13;;
41446;SDS011;27185;52.040;4.490;2022-11-15T08:45:10;9.85;;;5.57;;
41446;SDS011;27185;52.040;4.490;2022-11-15T08:47:56;10.25;;;5.32;;
41446;SDS011;27185;52.040;4.490;2022-11-15T08:50:41;8.65;;;5.93;;
41446;SDS011;27185;52.040;4.490;2022-11-15T08:53:28;11.60;;;5.40;;
41446;SDS011;27185;52.040;4.490;2022-11-15T08:56:14;14.43;;;6.22;;
41446;SDS011;27185;52.040;4.490;2022-11-15T08:59:00;9.55;;;5.90;;
41446;SDS011;27185;52.040;4.490;2022-11-15T09:01:46;11.43;;;5.95;;
41446;SDS011;27185;52.040;4.490;2022-11-15T09:04:31;15.18;;;5.13;;
41446;SDS011;27185;52.040;4.490;2022-11-15T09:07:17;10.38;;;5.50;;
41446;SDS011;27185;52.040;4.490;2022-11-15T09:10:03;17.63;;;6.50;;
41446;SDS011;27185;52.040;4.490;2022-11-15T09:12:49;8.55;;;4.97;;
41446;SDS011;27185;52.040;4.490;2022-11-15T09:15:35;10.38;;;5.78;;
41446;SDS011;27185;52.040;4.490;2022-11-15T09:18:21;8.55;;;4.15;;
41446;SDS011;27185;52.040;4.490;2022-11-15T09:21:08;9.57;;;5.95;;
41446;SDS011;27185;52.040;4.490;2022-11-15T09:23:54;11.40;;;4.65;;
41446;SDS011;27185;52.040;4.490;2022-11-15T09:26:40;9.23;;;5.05;;
41446;SDS011;27185;52.040;4.490;2022-11-15T09:29:25;9.57;;;5.15;;
41446;SDS011;27185;52.040;4.490;2022-11-15T09:32:11;10.02;;;4.60;;
41446;SDS011;27185;52.040;4.490;2022-11-15T09:34:57;13.65;;;4.57;;
41446;SDS011;27185;52.040;4.490;2022-11-15T09:37:42;13.30;;;5.35;;
41446;SDS011;27185;52.040;4.490;2022-11-15T09:40:29;9.40;;;5.22;;
41446;SDS011;27185;52.040;4.490;2022-11-15T09:53:29;6.68;;;3.47;;
41446;SDS011;27185;52.040;4.490;2022-11-15T09:59:16;7.72;;;3.58;;
41446;SDS011;27185;52.040;4.490;2022-11-15T10:05:40;7.32;;;2.90;;
41446;SDS011;27185;52.040;4.490;2022-11-15T10:08:45;10.48;;;3.00;;
41446;SDS011;27185;52.040;4.490;2022-11-15T10:11:36;6.50;;;2.78;;
41446;SDS011;27185;52.040;4.490;2022-11-15T10:14:23;11.02;;;3.08;;
41446;SDS011;27185;52.040;4.490;2022-11-15T10:17:25;10.95;;;3.15;;
41446;SDS011;27185;52.040;4.490;2022-11-15T10:20:26;9.98;;;3.17;;
41446;SDS011;27185;52.040;4.490;2022-11-15T10:23:15;6.45;;;2.20;;
41446;SDS011;27185;52.040;4.490;2022-11-15T10:26:04;10.00;;;2.08;;
41446;SDS011;27185;52.040;4.490;2022-11-15T10:28:55;8.38;;;2.85;;
41446;SDS011;27185;52.040;4.490;2022-11-15T10:31:41;6.68;;;2.08;;
41446;SDS011;27185;52.040;4.490;2022-11-15T10:34:27;8.77;;;1.60;;
41446;SDS011;27185;52.040;4.490;2022-11-15T10:37:12;5.50;;;2.60;;
41446;SDS011;27185;52.040;4.490;2022-11-15T10:40:20;7.93;;;2.75;;
41446;SDS011;27185;52.040;4.490;2022-11-15T10:43:17;7.60;;;2.00;;
41446;SDS011;27185;52.040;4.490;2022-11-15T10:46:23;6.18;;;1.63;;
41446;SDS011;27185;52.040;4.490;2022-11-15T10:49:12;4.78;;;1.77;;
41446;SDS011;27185;52.040;4.490;2022-11-15T10:52:19;6.60;;;1.70;;
41446;SDS011;27185;52.040;4.490;2022-11-15T10:58:01;5.93;;;1.95;;
41446;SDS011;27185;52.040;4.490;2022-11-15T11:00:52;6.35;;;1.73;;
41446;SDS011;27185;52.040;4.490;2022-11-15T11:03:39;7.63;;;1.90;;
41446;SDS011;27185;52.040;4.490;2022-11-15T11:06:26;4.70;;;1.60;;
41446;SDS011;27185;52.040;4.490;2022-11-15T11:09:21;6.78;;;1.45;;
41446;SDS011;27185;52.040;4.490;2022-11-15T11:12:17;5.15;;;1.50;;
41446;SDS011;27185;52.040;4.490;2022-11-15T11:15:14;7.00;;;1.65;;
41446;SDS011;27185;52.040;4.490;2022-11-15T11:18:05;7.40;;;1.63;;
41446;SDS011;27185;52.040;4.490;2022-11-15T11:20:56;6.22;;;1.38;;
41446;SDS011;27185;52.040;4.490;2022-11-15T11:23:59;6.85;;;1.65;;
41446;SDS011;27185;52.040;4.490;2022-11-15T11:27:26;4.63;;;1.40;;
41446;SDS011;27185;52.040;4.490;2022-11-15T11:30:36;5.63;;;1.23;;
41446;SDS011;27185;52.040;4.490;2022-11-15T11:33:34;9.50;;;1.58;;
41446;SDS011;27185;52.040;4.490;2022-11-15T11:49:34;6.50;;;1.17;;
41446;SDS011;27185;52.040;4.490;2022-11-15T11:52:28;3.53;;;0.95;;
41446;SDS011;27185;52.040;4.490;2022-11-15T11:55:23;6.30;;;1.17;;
41446;SDS011;27185;52.040;4.490;2022-11-15T11:58:32;3.25;;;0.88;;
41446;SDS011;27185;52.040;4.490;2022-11-15T12:01:29;5.03;;;1.13;;
41446;SDS011;27185;52.040;4.490;2022-11-15T12:04:34;4.57;;;1.27;;
41446;SDS011;27185;52.040;4.490;2022-11-15T12:07:24;4.32;;;1.13;;
41446;SDS011;27185;52.040;4.490;2022-11-15T12:10:23;6.78;;;0.80;;
41446;SDS011;27185;52.040;4.490;2022-11-15T12:13:15;3.97;;;0.80;;
41446;SDS011;27185;52.040;4.490;2022-11-15T12:16:12;7.05;;;1.00;;
41446;SDS011;27185;52.040;4.490;2022-11-15T12:19:03;5.18;;;0.73;;
41446;SDS011;27185;52.040;4.490;2022-11-15T12:21:55;6.30;;;0.82;;
41446;SDS011;27185;52.040;4.490;2022-11-15T12:27:51;4.60;;;0.73;;
41446;SDS011;27185;52.040;4.490;2022-11-15T12:30:42;3.10;;;0.88;;
41446;SDS011;27185;52.040;4.490;2022-11-15T12:36:38;6.55;;;0.80;;
41446;SDS011;27185;52.040;4.490;2022-11-15T12:43:05;3.08;;;0.73;;
41446;SDS011;27185;52.040;4.490;2022-11-15T12:46:01;4.80;;;0.77;;
41446;SDS011;27185;52.040;4.490;2022-11-15T12:48:50;4.32;;;0.60;;
41446;SDS011;27185;52.040;4.490;2022-11-15T12:57:29;6.00;;;0.60;;
41446;SDS011;27185;52.040;4.490;2022-11-15T13:03:21;4.50;;;0.50;;
41446;SDS011;27185;52.040;4.490;2022-11-15T13:06:09;3.40;;;0.50;;
41446;SDS011;27185;52.040;4.490;2022-11-15T13:18:39;9.27;;;1.00;;
41446;SDS011;27185;52.040;4.490;2022-11-15T13:21:24;5.10;;;0.73;;
41446;SDS011;27185;52.040;4.490;2022-11-15T13:24:28;6.65;;;0.65;;
41446;SDS011;27185;52.040;4.490;2022-11-15T13:27:15;6.32;;;0.60;;
41446;SDS011;27185;52.040;4.490;2022-11-15T13:30:04;4.10;;;0.70;;
41446;SDS011;27185;52.040;4.490;2022-11-15T13:32:50;4.55;;;0.50;;
41446;SDS011;27185;52.040;4.490;2022-11-15T13:35:39;5.00;;;0.63;;
41446;SDS011;27185;52.040;4.490;2022-11-15T13:38:33;5.15;;;0.60;;
41446;SDS011;27185;52.040;4.490;2022-11-15T13:41:21;3.47;;;0.40;;
41446;SDS011;27185;52.040;4.490;2022-11-15T13:44:17;3.13;;;0.50;;
41446;SDS011;27185;52.040;4.490;2022-11-15T13:50:00;11.02;;;0.80;;
41446;SDS011;27185;52.040;4.490;2022-11-15T13:52:46;5.78;;;0.60;;
41446;SDS011;27185;52.040;4.490;2022-11-15T13:55:33;4.40;;;0.43;;
41446;SDS011;27185;52.040;4.490;2022-11-15T13:58:19;3.95;;;0.50;;
41446;SDS011;27185;52.040;4.490;2022-11-15T14:01:05;4.93;;;0.60;;
41446;SDS011;27185;52.040;4.490;2022-11-15T14:03:52;2.75;;;0.65;;
41446;SDS011;27185;52.040;4.490;2022-11-15T14:06:44;3.35;;;0.65;;
41446;SDS011;27185;52.040;4.490;2022-11-15T14:09:39;2.35;;;0.45;;
41446;SDS011;27185;52.040;4.490;2022-11-15T14:12:34;3.88;;;0.50;;
41446;SDS011;27185;52.040;4.490;2022-11-15T14:15:25;4.32;;;0.40;;
41446;SDS011;27185;52.040;4.490;2022-11-15T14:18:39;3.97;;;0.68;;
41446;SDS011;27185;52.040;4.490;2022-11-15T14:22:07;3.50;;;0.50;;
41446;SDS011;27185;52.040;4.490;2022-11-15T14:25:13;2.97;;;0.50;;
41446;SDS011;27185;52.040;4.490;2022-11-15T14:28:14;3.85;;;0.55;;
41446;SDS011;27185;52.040;4.490;2022-11-15T14:31:04;5.78;;;0.70;;
41446;SDS011;27185;52.040;4.490;2022-11-15T14:33:56;2.58;;;0.50;;
41446;SDS011;27185;52.040;4.490;2022-11-15T14:36:42;5.22;;;0.30;;
41446;SDS011;27185;52.040;4.490;2022-11-15T14:39:27;6.90;;;0.60;;
41446;SDS011;27185;52.040;4.490;2022-11-15T14:42:13;4.40;;;0.52;;
41446;SDS011;27185;52.040;4.490;2022-11-15T14:44:58;7.63;;;0.82;;
41446;SDS011;27185;52.040;4.490;2022-11-15T14:47:44;3.05;;;0.55;;
41446;SDS011;27185;52.040;4.490;2022-11-15T14:50:31;2.25;;;0.47;;
41446;SDS011;27185;52.040;4.490;2022-11-15T14:53:17;2.95;;;0.40;;
41446;SDS011;27185;52.040;4.490;2022-11-15T14:56:04;3.60;;;0.52;;
41446;SDS011;27185;52.040;4.490;2022-11-15T14:58:50;2.20;;;0.80;;
41446;SDS011;27185;52.040;4.490;2022-11-15T15:01:35;5.15;;;0.55;;
41446;SDS011;27185;52.040;4.490;2022-11-15T15:04:21;1.85;;;0.50;;
41446;SDS011;27185;52.040;4.490;2022-11-15T15:07:07;2.70;;;0.38;;
41446;SDS011;27185;52.040;4.490;2022-11-15T15:09:52;3.08;;;0.50;;
41446;SDS011;27185;52.040;4.490;2022-11-15T15:12:38;3.78;;;0.60;;
41446;SDS011;27185;52.040;4.490;2022-11-15T15:15:24;3.72;;;0.50;;
41446;SDS011;27185;52.040;4.490;2022-11-15T15:18:12;5.22;;;0.70;;
41446;SDS011;27185;52.040;4.490;2022-11-15T15:20:58;3.42;;;0.40;;
41446;SDS011;27185;52.040;4.490;2022-11-15T15:23:47;3.42;;;0.60;;
41446;SDS011;27185;52.040;4.490;2022-11-15T15:26:33;3.58;;;0.60;;
41446;SDS011;27185;52.040;4.490;2022-11-15T15:29:21;2.30;;;0.50;;
41446;SDS011;27185;52.040;4.490;2022-11-15T15:32:06;3.22;;;0.55;;
41446;SDS011;27185;52.040;4.490;2022-11-15T15:34:53;3.67;;;0.50;;
41446;SDS011;27185;52.040;4.490;2022-11-15T15:37:39;4.55;;;0.68;;
41446;SDS011;27185;52.040;4.490;2022-11-15T15:40:28;2.83;;;0.50;;
41446;SDS011;27185;52.040;4.490;2022-11-15T15:43:15;2.33;;;0.60;;
41446;SDS011;27185;52.040;4.490;2022-11-15T15:46:01;4.25;;;0.70;;
41446;SDS011;27185;52.040;4.490;2022-11-15T15:48:46;1.08;;;0.43;;
41446;SDS011;27185;52.040;4.490;2022-11-15T15:51:32;2.10;;;0.40;;
41446;SDS011;27185;52.040;4.490;2022-11-15T15:54:17;2.72;;;0.50;;
41446;SDS011;27185;52.040;4.490;2022-11-15T15:57:03;2.50;;;0.60;;
41446;SDS011;27185;52.040;4.490;2022-11-15T15:59:49;3.50;;;0.60;;
41446;SDS011;27185;52.040;4.490;2022-11-15T16:02:35;1.88;;;0.50;;
41446;SDS011;27185;52.040;4.490;2022-11-15T16:05:21;2.78;;;0.70;;
41446;SDS011;27185;52.040;4.490;2022-11-15T16:08:20;1.83;;;0.73;;
41446;SDS011;27185;52.040;4.490;2022-11-15T16:11:07;2.83;;;0.55;;
41446;SDS011;27185;52.040;4.490;2022-11-15T16:13:54;3.25;;;1.08;;
41446;SDS011;27185;52.040;4.490;2022-11-15T16:16:39;4.32;;;0.77;;
41446;SDS011;27185;52.040;4.490;2022-11-15T16:19:25;3.85;;;0.70;;
41446;SDS011;27185;52.040;4.490;2022-11-15T16:22:10;2.80;;;0.60;;
41446;SDS011;27185;52.040;4.490;2022-11-15T16:24:56;3.40;;;0.60;;
41446;SDS011;27185;52.040;4.490;2022-11-15T16:27:42;4.63;;;0.82;;
41446;SDS011;27185;52.040;4.490;2022-11-15T16:30:29;3.58;;;0.60;;
41446;SDS011;27185;52.040;4.490;2022-11-15T16:33:15;2.90;;;0.70;;
41446;SDS011;27185;52.040;4.490;2022-11-15T16:36:03;2.00;;;0.80;;
41446;SDS011;27185;52.040;4.490;2022-11-15T16:38:50;6.82;;;0.70;;
41446;SDS011;27185;52.040;4.490;2022-11-15T16:41:36;3.33;;;0.70;;
41446;SDS011;27185;52.040;4.490;2022-11-15T16:44:22;3.72;;;0.70;;
41446;SDS011;27185;52.040;4.490;2022-11-15T16:47:15;3.17;;;0.70;;
41446;SDS011;27185;52.040;4.490;2022-11-15T16:50:03;4.47;;;0.90;;
41446;SDS011;27185;52.040;4.490;2022-11-15T16:52:49;2.85;;;0.70;;
41446;SDS011;27185;52.040;4.490;2022-11-15T16:55:36;5.10;;;0.85;;
41446;SDS011;27185;52.040;4.490;2022-11-15T16:58:22;5.05;;;1.00;;
41446;SDS011;27185;52.040;4.490;2022-11-15T17:01:14;3.88;;;1.25;;
41446;SDS011;27185;52.040;4.490;2022-11-15T17:04:05;2.78;;;0.80;;
41446;SDS011;27185;52.040;4.490;2022-11-15T17:06:56;5.55;;;1.30;;
41446;SDS011;27185;52.040;4.490;2022-11-15T17:09:42;2.40;;;0.63;;
41446;SDS011;27185;52.040;4.490;2022-11-15T17:12:27;6.20;;;0.95;;
41446;SDS011;27185;52.040;4.490;2022-11-15T17:15:14;2.23;;;0.90;;
41446;SDS011;27185;52.040;4.490;2022-11-15T17:18:00;1.92;;;0.68;;
41446;SDS011;27185;52.040;4.490;2022-11-15T17:20:46;1.95;;;1.00;;
41446;SDS011;27185;52.040;4.490;2022-11-15T17:23:31;2.75;;;0.98;;
41446;SDS011;27185;52.040;4.490;2022-11-15T17:26:18;3.30;;;1.05;;
41446;SDS011;27185;52.040;4.490;2022-11-15T17:29:04;2.38;;;0.80;;
41446;SDS011;27185;52.040;4.490;2022-11-15T17:31:51;2.90;;;1.40;;
41446;SDS011;27185;52.040;4.490;2022-11-15T17:34:37;4.40;;;0.95;;
41446;SDS011;27185;52.040;4.490;2022-11-15T17:37:23;3.10;;;1.25;;
41446;SDS011;27185;52.040;4.490;2022-11-15T17:40:08;3.90;;;1.30;;
41446;SDS011;27185;52.040;4.490;2022-11-15T17:42:54;3.78;;;1.25;;
41446;SDS011;27185;52.040;4.490;2022-11-15T17:45:41;2.25;;;1.00;;
41446;SDS011;27185;52.040;4.490;2022-11-15T17:48:27;2.78;;;1.23;;
41446;SDS011;27185;52.040;4.490;2022-11-15T17:51:15;4.30;;;1.60;;
41446;SDS011;27185;52.040;4.490;2022-11-15T17:54:01;3.83;;;1.50;;
41446;SDS011;27185;52.040;4.490;2022-11-15T17:56:47;3.10;;;1.30;;
41446;SDS011;27185;52.040;4.490;2022-11-15T17:59:33;3.15;;;1.40;;
41446;SDS011;27185;52.040;4.490;2022-11-15T18:02:18;3.42;;;1.58;;
41446;SDS011;27185;52.040;4.490;2022-11-15T18:05:04;4.45;;;1.30;;
41446;SDS011;27185;52.040;4.490;2022-11-15T18:07:50;4.35;;;1.65;;
41446;SDS011;27185;52.040;4.490;2022-11-15T18:10:36;5.55;;;1.50;;